FW6349 Weather Reports


time (UTC)temp
C
wind
direction
speed
KPH
gust
KPH
rain 1hr
cm
rain 24hr
cm
rain mn
cm
humidity
%
barometer
mb
20230128005559 -10 293 8.0 14.5 0.00 0.00 0.00 69 1012.2
20230128004517 -10 293 6.4 19.3 0.00 0.00 0.00 69 1011.9
20230128003517 -9 293 8.0 14.5 0.00 0.00 0.00 69 1011.9
20230128002517 -9 293 4.8 11.3 0.00 0.00 0.00 68 1011.7
20230128001517 -9 293 6.4 14.5 0.00 0.00 0.00 68 1011.4
20230128000517 -9 293 9.7 17.7 0.00 0.00 0.00 68 1011.2
20230127235517 -8 293 8.0 19.3 0.00 0.00 0.00 67 1010.9
20230127234517 -8 293 11.3 20.9 0.00 0.00 0.00 68 1010.6
20230127233517 -8 293 6.4 19.3 0.00 0.00 0.00 67 1010.1
20230127232518 -8 293 9.7 17.7 0.00 0.00 0.00 66 1009.7
20230127231517 -8 315 12.9 27.4 0.00 0.00 0.00 66 1009.4
20230127230517 -7 293 6.4 14.5 0.00 0.00 0.00 66 1009.1
20230127225518 -7 293 11.3 19.3 0.00 0.00 0.00 65 1008.8
20230127224522 -7 293 6.4 12.9 0.00 0.00 0.00 65 1008.5
20230127223516 -7 293 9.7 20.9 0.00 0.00 0.00 64 1008.3
20230127222516 -7 315 6.4 14.5 0.00 0.00 0.00 64 1008.2
20230127221517 -6 293 9.7 20.9 0.00 0.00 0.00 64 1008.0
20230127220521 -6 315 8.0 14.5 0.00 0.00 0.00 63 1007.7
20230127215537 -6 315 11.3 22.5 0.00 0.00 0.00 62 1007.6
20230127214542 -5 315 11.3 22.5 0.00 0.00 0.00 62 1007.2
20230127213518 -5 338 8.0 17.7 0.00 0.00 0.00 64 1007.1
20230127212517 -6 315 8.0 24.1 0.00 0.00 0.00 64 1007.0
20230127211517 -6 315 11.3 22.5 0.00 0.00 0.00 64 1006.8
20230127210538 -6 315 11.3 24.1 0.00 0.00 0.00 64 1006.6
20230127205517 -5 293 9.7 20.9 0.00 0.00 0.00 66 1006.4
20230127204517 -5 338 12.9 24.1 0.00 0.00 0.00 66 1006.2
20230127203518 -5 315 11.3 24.1 0.00 0.00 0.00 66 1006.0
20230127202516 -5 338 12.9 24.1 0.00 0.00 0.00 67 1006.0
20230127201517 -5 293 12.9 25.7 0.00 0.00 0.00 68 1005.8
20230127200516 -5 293 14.5 29.0 0.00 0.00 0.00 69 1005.7
20230127195517 -5 315 12.9 29.0 0.00 0.00 0.00 69 1005.4
20230127194516 -5 293 16.1 30.6 0.00 0.00 0.00 70 1005.4
20230127193516 -5 293 14.5 29.0 0.00 0.00 0.00 70 1005.3
20230127192516 -5 293 14.5 27.4 0.00 0.00 0.00 71 1005.0
20230127191521 -5 293 14.5 27.4 0.00 0.00 0.00 71 1004.8
20230127190517 -5 293 16.1 29.0 0.00 0.00 0.00 71 1004.8
20230127185516 -5 315 14.5 25.7 0.00 0.00 0.00 72 1004.5
20230127184541 -5 293 11.3 27.4 0.00 0.00 0.00 73 1004.3
20230127183536 -5 315 12.9 30.6 0.00 0.00 0.00 73 1004.2
20230127182516 -5 293 14.5 25.7 0.00 0.00 0.00 74 1004.0
20230127181517 -5 315 11.3 25.7 0.00 0.00 0.00 74 1004.1
20230127180516 -5 293 16.1 29.0 0.00 0.00 0.00 74 1004.0
20230127175516 -5 315 14.5 29.0 0.00 0.00 0.00 74 1003.7
20230127174521 -4 315 12.9 27.4 0.00 0.00 0.00 75 1003.4
20230127173516 -5 293 12.9 30.6 0.00 0.00 0.00 78 1003.3
20230127172516 -5 315 16.1 37.0 0.00 0.00 0.00 78 1003.2
20230127171518 -5 293 12.9 22.5 0.00 0.00 0.00 80 1003.0
20230127170516 -5 293 14.5 29.0 0.00 0.00 0.00 81 1002.9
20230127165516 -5 293 14.5 30.6 0.00 0.00 0.00 81 1002.8
20230127164516 -5 293 16.1 30.6 0.00 0.00 0.00 82 1002.5
20230127163516 -5 293 17.7 35.4 0.00 0.00 0.00 82 1002.5
20230127162536 -4 315 16.1 32.2 0.00 0.00 0.00 82 1002.3
20230127161516 -4 293 9.7 20.9 0.00 0.00 0.00 84 1001.8
20230127160516 -4 315 16.1 30.6 0.00 0.00 0.00 83 1001.6
20230127155516 -3 338 12.9 20.9 0.00 0.00 0.00 83 1001.4
20230127154516 -3 293 9.7 22.5 0.00 0.00 0.00 85 1001.0
20230127153516 -3 293 12.9 22.5 0.00 0.00 0.00 85 1000.6
20230127152536 -3 315 9.7 24.1 0.00 0.00 0.00 84 1000.4
20230127151516 -3 338 16.1 27.4 0.00 0.00 0.00 84 1000.2
20230127150522 -2 315 11.3 30.6 0.00 0.00 0.00 86 999.8
20230127145516 -2 315 12.9 25.7 0.00 0.00 0.00 86 999.4
20230127144521 -1 293 19.3 41.8 0.00 0.00 0.00 88 999.1
20230127143516 -1 293 12.9 29.0 0.00 0.00 0.00 90 998.7
20230127142516 -1 315 11.3 22.5 0.00 0.00 0.00 91 998.5
20230127141516 0 315 11.3 29.0 0.00 0.00 0.00 92 998.1
20230127140516 0 315 14.5 32.2 0.00 0.00 0.00 94 997.8
20230127135516 0 315 11.3 25.7 0.00 0.00 0.00 95 997.5
20230127134535 0 293 9.7 22.5 0.00 0.00 0.00 96 997.1
20230127133521 0 293 3.2 11.3 0.00 0.00 0.00 96 996.8
20230127132516 0 293 4.8 12.9 0.00 0.00 0.00 96 996.7
20230127131536 -1 293 3.2 11.3 0.00 0.00 0.00 95 996.6
20230127130515 -1 293 1.6 11.3 0.00 0.00 0.00 95 996.4
20230127125515 -1 270 1.6 6.4 0.00 0.00 0.00 95 996.3
20230127124516 -1 225 1.6 6.4 0.00 0.00 0.00 95 996.1
20230127123516 -1 203 1.6 4.8 0.00 0.00 0.00 95 995.9
20230127122515 -1 203 3.2 8.0 0.00 0.00 0.00 95 995.8
20230127121537 -2 203 4.8 11.3 0.00 0.00 0.00 95 995.7
20230127120516 -2 203 4.8 12.9 0.00 0.00 0.00 95 995.7
20230127115541 -2 180 6.4 12.9 0.00 0.00 0.00 94 995.5
20230127114516 -2 180 6.4 17.7 0.00 0.00 0.00 94 995.4
20230127113515 -2 180 8.0 12.9 0.00 0.00 0.00 94 995.5
20230127112515 -2 180 6.4 12.9 0.00 0.00 0.00 94 995.5
20230127111516 -2 158 8.0 14.5 0.00 0.00 0.00 94 995.7
20230127110535 -2 158 8.0 16.1 0.00 0.00 0.00 94 995.6
20230127105516 -3 158 8.0 16.1 0.00 0.00 0.00 94 995.9
20230127104520 -3 180 9.7 14.5 0.00 0.00 0.00 94 995.9
20230127103515 -3 158 9.7 14.5 0.00 0.00 0.00 93 995.9
20230127102515 -3 158 8.0 12.9 0.00 0.00 0.00 93 996.1
20230127101516 -3 158 9.7 17.7 0.00 0.00 0.00 93 996.2
20230127100516 -3 180 9.7 16.1 0.00 0.00 0.00 93 996.2
20230127095536 -3 158 8.0 17.7 0.00 0.00 0.00 93 996.4
20230127094515 -4 180 11.3 24.1 0.00 0.00 0.00 93 996.6
20230127093515 -4 180 12.9 24.1 0.00 0.00 0.00 93 996.8
20230127092535 -4 158 12.9 19.3 0.00 0.00 0.00 92 997.0
20230127091515 -5 158 11.3 19.3 0.00 0.00 0.00 93 997.2
20230127090536 -5 158 12.9 20.9 0.00 0.00 0.00 92 997.5
20230127085516 -5 158 12.9 22.5 0.00 0.00 0.00 92 997.7
20230127084515 -5 158 11.3 19.3 0.00 0.00 0.00 92 997.9
20230127083520 -6 158 12.9 19.3 0.00 0.00 0.00 92 998.2
20230127082517 -6 158 9.7 14.5 0.00 0.00 0.00 92 998.5
20230127081517 -6 158 14.5 22.5 0.00 0.00 0.00 92 998.6
20230127080517 -7 158 9.7 24.1 0.00 0.00 0.00 91 998.9
20230127075522 -7 158 11.3 20.9 0.00 0.00 0.00 91 999.2
20230127074517 -7 158 11.3 20.9 0.00 0.00 0.00 91 999.5
20230127073517 -7 158 11.3 25.7 0.00 0.00 0.00 91 999.8
20230127072517 -7 158 12.9 24.1 0.00 0.00 0.00 91 1000.0
20230127071519 -8 158 11.3 22.5 0.00 0.00 0.00 90 1000.2
20230127070517 -8 158 14.5 27.4 0.00 0.00 0.00 90 1000.4
20230127065537 -8 158 12.9 20.9 0.00 0.00 0.00 90 1000.6
20230127064522 -8 158 16.1 27.4 0.00 0.00 0.00 90 1000.8
20230127063537 -8 158 14.5 29.0 0.00 0.00 0.00 90 1001.2
20230127062517 -8 158 14.5 29.0 0.00 0.00 0.00 88 1001.6
20230127061517 -8 158 16.1 25.7 0.00 0.00 0.00 88 1002.0
20230127060517 -8 158 14.5 29.0 0.00 0.00 0.00 88 1002.2
20230127055536 -9 158 12.9 22.5 0.00 0.00 0.00 87 1002.6
20230127054515 -9 158 14.5 25.7 0.00 0.00 0.00 86 1002.8
20230127053521 -9 158 12.9 20.9 0.00 0.00 0.00 86 1003.2
20230127052516 -9 158 11.3 19.3 0.00 0.00 0.00 85 1003.6
20230127051516 -9 158 14.5 27.4 0.00 0.00 0.00 84 1003.9
20230127050515 -9 158 11.3 22.5 0.00 0.00 0.00 84 1004.2
20230127045516 -9 158 12.9 20.9 0.00 0.00 0.00 83 1004.5
20230127044516 -9 158 9.7 19.3 0.00 0.00 0.00 83 1004.9
20230127043515 -9 158 11.3 20.9 0.00 0.00 0.00 83 1005.6
20230127042515 -9 158 9.7 20.9 0.00 0.00 0.00 83 1006.0
20230127041516 -9 158 9.7 16.1 0.00 0.00 0.00 82 1006.3
20230127040556 -10 158 11.3 22.5 0.00 0.00 0.00 82 1006.5
20230127035600 -10 158 12.9 22.5 0.00 0.00 0.00 82 1006.9
20230127034535 -10 158 12.9 24.1 0.00 0.00 0.00 82 1007.0
20230127033515 -10 158 16.1 32.2 0.00 0.00 0.00 82 1007.5
20230127032517 -10 180 14.5 25.7 0.00 0.00 0.00 82 1007.7
20230127031515 -10 158 12.9 22.5 0.00 0.00 0.00 83 1007.9
20230127030517 -10 158 9.7 20.9 0.00 0.00 0.00 83 1008.3
20230127025515 -10 158 9.7 16.1 0.00 0.00 0.00 83 1008.5
20230127024520 -10 158 9.7 19.3 0.00 0.00 0.00 83 1008.5
20230127023515 -10 158 11.3 22.5 0.00 0.00 0.00 83 1008.7
20230127022535 -10 158 11.3 22.5 0.00 0.00 0.00 83 1008.9
20230127021515 -10 158 11.3 22.5 0.00 0.00 0.00 82 1009.4
20230127020515 -10 158 11.3 20.9 0.00 0.00 0.00 82 1009.6
20230127015515 -10 158 12.9 20.9 0.00 0.00 0.00 81 1009.8
20230127014515 -10 158 9.7 20.9 0.00 0.00 0.00 81 1010.0
20230127013535 -10 158 12.9 22.5 0.00 0.00 0.00 81 1010.5
20230127012517 -10 180 11.3 24.1 0.00 0.00 0.00 80 1010.9
20230127011517 -10 158 9.7 19.3 0.00 0.00 0.00 79 1011.1
20230127010537 -10 180 9.7 20.9 0.00 0.00 0.00 77 1011.5